Pagrindinis puslapis
METAR-TAF:

METAR-TAF

Oro uostai :

Kylis, Vokietija

platuma: 54-23N, ilguma: 010-10E, Aukštis: 31 m

Dabartinis oras

Ataskaita buvo paskelbta 9 valandos ir 56 minutes, ne 14:50 UTC
Vėjas 10 kt iš Šiaurės, svyruoja nuo Šiaurės Vakarų ir Šiaurės/Šiaurės Rytų
Temperatūra 10°C
Drėgmė 57%
Slėgis 1021 hPa
Matomumas 10 km arba daugiau
nėra debesų žemiau 1500 m ir nėra kamuolinių lietaus debesų

METAR: EDHK 281450Z 36010KT 320V030 CAVOK 10/02 Q1021

Laikas: 01:46 (00:46 UTC)

Prognozė

Ataskaita buvo paskelbta 10 valandos ir 46 minutes, ne 14:00 UTC
Prognozė galioja nuo 28 metu 15 UTC su 28 metu 18 UTC
Vėjas 10 kt iš Šiaurės
Matomumas 10 km arba daugiau
nėra debesų žemiau 1500 m ir nėra kamuolinių lietaus debesų

TAF: EDHK 281400Z 2815/2818 35010KT CAVOK

Orai ataskaitas ir orų prognozės (METAR, TAF).

turimą stotys yra geltonos ir raudonos taškus žemėlapyje.

Perkelti pele per norėdami pamatyti stoties vardą.

Tada spustelėkite, norėdami matyti oro stebėjimo ir prognozės.

Norėdami pakeisti žemėlapį: spustelėkite ant žalios mygtukų su juodo kryžiaus žemyn,; žalią mygtuką su brūkšneliu, jei norite nutolinti; arba žalių rodyklių gretimoms žemėlapius.


METAR-TAF: